createdAt,value
2023-06-17T00:00:28.396Z,99874.75
2023-06-17T00:03:31.323Z,99873.19
2023-06-17T00:06:33.723Z,99867.59
2023-06-17T00:09:36.487Z,99884.75
2023-06-17T00:12:40.598Z,99866.81
2023-06-17T00:15:43.664Z,99862.44
2023-06-17T00:18:48.945Z,99875.19
2023-06-17T00:21:51.655Z,99872.41
2023-06-17T00:24:53.984Z,99861.25
2023-06-17T00:27:56.699Z,99848.50
2023-06-17T00:30:59.105Z,99840.91
2023-06-17T00:34:01.709Z,99861.25
2023-06-17T00:37:04.373Z,99836.53
2023-06-17T00:40:09.535Z,99851.25
2023-06-17T00:43:12.017Z,99850.88
2023-06-17T00:46:35.290Z,99843.28
2023-06-17T00:49:41.212Z,99854.00
2023-06-17T00:52:46.502Z,99835.69
2023-06-17T00:55:49.063Z,99839.66
2023-06-17T00:58:52.536Z,99841.25
2023-06-17T01:01:54.966Z,99849.28
2023-06-17T01:04:58.357Z,99833.28
2023-06-17T01:08:16.216Z,99834.06
2023-06-17T01:11:22.297Z,99833.72
2023-06-17T01:14:27.369Z,99839.66
2023-06-17T01:17:31.288Z,99834.09
2023-06-17T01:20:34.159Z,99838.06
2023-06-17T01:23:39.281Z,99820.16
2023-06-17T01:26:42.301Z,99839.66
2023-06-17T01:29:50.258Z,99844.44
2023-06-17T01:32:52.963Z,99828.50
2023-06-17T01:36:15.962Z,99836.47
2023-06-17T01:39:22.091Z,99844.03
2023-06-17T01:42:33.066Z,99834.06
2023-06-17T01:45:35.990Z,99828.50
2023-06-17T01:48:40.820Z,99849.59
2023-06-17T01:51:43.245Z,99844.44
2023-06-17T01:54:46.250Z,99832.47
2023-06-17T01:57:48.919Z,99845.56
2023-06-17T02:00:53.629Z,99849.94
2023-06-17T02:03:56.311Z,99841.63
2023-06-17T02:06:59.805Z,99818.09
2023-06-17T02:10:04.815Z,99822.84
2023-06-17T02:13:09.393Z,99825.22
2023-06-17T02:16:12.230Z,99835.59
2023-06-17T02:19:15.972Z,99837.16
2023-06-17T02:22:18.770Z,99840.31
2023-06-17T02:25:21.590Z,99821.59
2023-06-17T02:28:24.334Z,99818.81
2023-06-17T02:31:28.812Z,99816.44
2023-06-17T02:34:34.307Z,99837.53
2023-06-17T02:37:37.392Z,99842.66
2023-06-17T02:40:40.885Z,99843.44
2023-06-17T02:43:44.374Z,99847.44
2023-06-17T02:46:47.144Z,99852.66
2023-06-17T02:49:49.580Z,99850.63
2023-06-17T02:52:57.346Z,99853.03
2023-06-17T02:56:00.356Z,99832.28
2023-06-17T02:59:04.375Z,99859.78
2023-06-17T03:02:07.605Z,99851.44
2023-06-17T03:05:10.623Z,99854.66
2023-06-17T03:08:16.010Z,99836.31
2023-06-17T03:11:18.987Z,99837.84
2023-06-17T03:14:22.043Z,99853.78
2023-06-17T03:17:26.230Z,99856.16
2023-06-17T03:20:30.010Z,99848.97
2023-06-17T03:23:32.949Z,99843.41
2023-06-17T03:26:35.789Z,99855.69
2023-06-17T03:29:38.416Z,99840.87
2023-06-17T03:32:41.050Z,99850.03
2023-06-17T03:35:44.033Z,99855.31
2023-06-17T03:38:46.895Z,99851.31
2023-06-17T03:41:49.961Z,99859.28
2023-06-17T03:44:52.944Z,99879.66
2023-06-17T03:47:56.066Z,99881.25
2023-06-17T03:50:58.563Z,99880.47
2023-06-17T03:54:03.739Z,99860.16
2023-06-17T03:57:08.685Z,99886.47
2023-06-17T04:00:12.650Z,99869.34
2023-06-17T04:03:16.913Z,99871.34
2023-06-17T04:06:21.207Z,99882.91
2023-06-17T04:09:23.597Z,99879.69
2023-06-17T04:12:26.269Z,99880.16
2023-06-17T04:15:28.813Z,99884.09
2023-06-17T04:18:32.364Z,99898.44
2023-06-17T04:21:35.800Z,99876.91
2023-06-17T04:24:39.438Z,99878.50
2023-06-17T04:27:42.346Z,99875.34
2023-06-17T04:30:46.849Z,99878.56
2023-06-17T04:33:49.399Z,99897.69
2023-06-17T04:36:58.051Z,99900.91
2023-06-17T04:40:01.748Z,99903.28
2023-06-17T04:43:05.824Z,99890.50
2023-06-17T04:46:09.409Z,99909.28
2023-06-17T04:49:13.163Z,99894.56
2023-06-17T04:52:15.559Z,99893.75
2023-06-17T04:55:19.801Z,99888.19
2023-06-17T04:58:22.362Z,99896.25
2023-06-17T05:01:25.904Z,99898.66
2023-06-17T05:04:28.507Z,99907.41
2023-06-17T05:07:31.365Z,99905.84
2023-06-17T05:10:33.895Z,99905.03
2023-06-17T05:13:36.618Z,99887.50
2023-06-17T05:16:39.275Z,99877.13
2023-06-17T05:19:42.111Z,99902.66
2023-06-17T05:22:44.539Z,99917.81
2023-06-17T05:25:47.297Z,99914.63
2023-06-17T05:28:49.841Z,99893.09
2023-06-17T05:31:52.870Z,99881.19
2023-06-17T05:34:55.663Z,99891.53
2023-06-17T05:37:58.337Z,99887.16
2023-06-17T05:41:00.981Z,99895.50
2023-06-17T05:44:04.467Z,99887.53
2023-06-17T05:47:07.367Z,99912.25
2023-06-17T05:50:11.036Z,99896.72
2023-06-17T05:53:14.150Z,99912.63
2023-06-17T05:56:17.864Z,99921.00
2023-06-17T05:59:20.391Z,99912.25
2023-06-17T06:02:23.514Z,99923.00
2023-06-17T06:05:26.173Z,99912.63
2023-06-17T06:08:28.559Z,99915.03
2023-06-17T06:11:31.214Z,99937.72
2023-06-17T06:14:34.220Z,99921.38
2023-06-17T06:17:37.036Z,99922.53
2023-06-17T06:20:39.545Z,99924.13
2023-06-17T06:23:42.686Z,99939.25
2023-06-17T06:26:45.417Z,99931.66
2023-06-17T06:29:48.898Z,99934.41
2023-06-17T06:32:51.340Z,99931.25
2023-06-17T06:35:54.130Z,99935.22
2023-06-17T06:39:16.121Z,99923.63
2023-06-17T06:42:19.342Z,99950.31
2023-06-17T06:45:22.105Z,99935.09
2023-06-17T06:48:24.805Z,99953.34
2023-06-17T06:51:27.276Z,99932.56
2023-06-17T06:54:30.537Z,99942.88
2023-06-17T06:57:33.290Z,99941.25
2023-06-17T07:00:35.971Z,99961.09
2023-06-17T07:03:38.842Z,99950.25
2023-06-17T07:06:42.131Z,99960.03
2023-06-17T07:09:45.374Z,99965.47
2023-06-17T07:12:48.101Z,99944.62
2023-06-17T07:15:51.311Z,99966.91
2023-06-17T07:18:54.427Z,99958.88
2023-06-17T07:21:57.297Z,99965.94
2023-06-17T07:25:00.457Z,99951.44
2023-06-17T07:28:03.076Z,99957.31
2023-06-17T07:31:06.859Z,99940.03
2023-06-17T07:34:09.178Z,99958.91
2023-06-17T07:37:12.182Z,99958.28
2023-06-17T07:40:14.933Z,99961.25
2023-06-17T07:43:17.991Z,99955.19
2023-06-17T07:46:20.548Z,99965.31
2023-06-17T07:49:23.235Z,99961.94
2023-06-17T07:52:25.706Z,99961.72
2023-06-17T07:55:30.328Z,99960.72
2023-06-17T07:58:32.750Z,99951.47
2023-06-17T08:01:36.586Z,99956.81
2023-06-17T08:04:39.349Z,99958.22
2023-06-17T08:07:41.800Z,99954.44
2023-06-17T08:10:44.693Z,99953.50
2023-06-17T08:13:47.418Z,99946.91
2023-06-17T08:16:50.234Z,99956.56
2023-06-17T08:19:52.655Z,99951.00
2023-06-17T08:22:55.398Z,99951.28
2023-06-17T08:25:58.011Z,99958.13
2023-06-17T08:29:00.640Z,99940.03
2023-06-17T08:32:03.237Z,99954.63
2023-06-17T08:35:08.010Z,99950.84
2023-06-17T08:38:10.671Z,99957.63
2023-06-17T08:41:13.895Z,99958.34
2023-06-17T08:44:17.091Z,99961.00
2023-06-17T08:47:20.053Z,99957.63
2023-06-17T08:50:23.066Z,99968.59
2023-06-17T08:53:27.465Z,99961.72
2023-06-17T08:56:29.909Z,99955.50
2023-06-17T08:59:32.655Z,99963.16
2023-06-17T09:02:37.050Z,99967.31
2023-06-17T09:05:40.051Z,99945.00
2023-06-17T09:08:43.877Z,99955.69
2023-06-17T09:11:55.127Z,99963.37
2023-06-17T09:14:57.532Z,99959.78
2023-06-17T09:18:00.474Z,99945.72
2023-06-17T09:21:03.965Z,99947.31
2023-06-17T09:24:10.159Z,99959.03
2023-06-17T09:27:21.713Z,99965.28
2023-06-17T09:30:25.435Z,99940.47
2023-06-17T09:33:28.459Z,99960.06
2023-06-17T09:36:31.228Z,99961.53
2023-06-17T09:39:34.770Z,99956.63
2023-06-17T09:42:38.477Z,99958.25
2023-06-17T09:45:41.221Z,99968.31
2023-06-17T09:48:43.825Z,99959.44
2023-06-17T09:51:48.324Z,99965.38
2023-06-17T09:54:53.094Z,99972.94
2023-06-17T09:57:56.737Z,99968.22
2023-06-17T10:01:01.782Z,99953.44
2023-06-17T10:04:05.218Z,99958.53
2023-06-17T10:07:08.453Z,99951.00
2023-06-17T10:10:14.676Z,99968.09
2023-06-17T10:13:20.500Z,99973.84
2023-06-17T10:16:27.454Z,99969.13
2023-06-17T10:19:33.374Z,99970.72
2023-06-17T10:22:38.866Z,99970.75
2023-06-17T10:25:41.706Z,99964.31
2023-06-17T10:28:58.416Z,99967.31
2023-06-17T10:32:17.614Z,99979.28
2023-06-17T10:35:21.040Z,99980.56
2023-06-17T10:38:30.837Z,99970.47
2023-06-17T10:41:39.641Z,99975.19
2023-06-17T10:44:44.624Z,99959.75
2023-06-17T10:47:50.634Z,99964.91
2023-06-17T10:50:55.353Z,99977.56
2023-06-17T10:53:58.132Z,99976.44
2023-06-17T10:57:05.884Z,99973.59
2023-06-17T11:00:11.416Z,99974.25
2023-06-17T11:03:18.100Z,99969.84
2023-06-17T11:06:20.797Z,99973.62
2023-06-17T11:09:26.946Z,99964.44
2023-06-17T11:12:29.699Z,99960.94
2023-06-17T11:15:32.146Z,99972.91
2023-06-17T11:18:40.169Z,99970.28
2023-06-17T11:21:42.900Z,99965.38
2023-06-17T11:24:46.415Z,99962.56
2023-06-17T11:27:49.055Z,99972.81
2023-06-17T11:30:51.694Z,99965.38
2023-06-17T11:34:00.798Z,99969.44
2023-06-17T11:37:07.899Z,99953.47
2023-06-17T11:40:12.250Z,99948.50
2023-06-17T11:43:17.663Z,99955.63
2023-06-17T11:46:24.661Z,99951.50
2023-06-17T11:49:30.254Z,99947.28
2023-06-17T11:52:36.348Z,99944.81
2023-06-17T11:55:39.735Z,99952.09
2023-06-17T11:58:43.511Z,99941.38
2023-06-17T12:01:49.322Z,99941.06
2023-06-17T12:04:52.102Z,99940.44
2023-06-17T12:07:57.695Z,99942.81
2023-06-17T12:11:08.593Z,99948.31
2023-06-17T12:14:14.123Z,99928.88
2023-06-17T12:17:17.751Z,99934.78
2023-06-17T12:20:24.447Z,99917.50
2023-06-17T12:23:28.334Z,99917.56
2023-06-17T12:26:35.979Z,99929.47
2023-06-17T12:29:38.701Z,99932.50
2023-06-17T12:32:41.489Z,99921.03
2023-06-17T12:35:44.309Z,99930.75
2023-06-17T12:38:47.544Z,99926.97
2023-06-17T12:41:52.506Z,99920.09
2023-06-17T12:44:55.053Z,99933.94
2023-06-17T12:47:59.272Z,99918.94
2023-06-17T12:51:02.114Z,99927.91
2023-06-17T12:54:04.696Z,99926.63
2023-06-17T12:57:08.739Z,99924.44
2023-06-17T13:00:16.427Z,99932.97
2023-06-17T13:03:19.132Z,99924.59
2023-06-17T13:06:24.949Z,99923.06
2023-06-17T13:09:27.390Z,99921.94
2023-06-17T13:12:30.025Z,99917.50
2023-06-17T13:15:32.433Z,99927.91
2023-06-17T13:18:36.239Z,99917.63
2023-06-17T13:21:38.986Z,99920.69
2023-06-17T13:24:44.106Z,99916.47
2023-06-17T13:27:46.738Z,99917.78
2023-06-17T13:30:50.312Z,99914.94
2023-06-17T13:33:52.713Z,99908.81
2023-06-17T13:36:56.054Z,99915.28
2023-06-17T13:39:58.616Z,99915.28
2023-06-17T13:43:02.355Z,99907.84
2023-06-17T13:46:05.984Z,99900.78
2023-06-17T13:49:09.037Z,99909.47
2023-06-17T13:52:12.808Z,99913.66
2023-06-17T13:55:15.769Z,99913.53
2023-06-17T13:58:18.199Z,99908.16
2023-06-17T14:01:21.337Z,99913.00
2023-06-17T14:04:25.150Z,99905.91
2023-06-17T14:07:27.599Z,99914.94
2023-06-17T14:10:36.303Z,99918.25
2023-06-17T14:13:38.758Z,99917.09
2023-06-17T14:16:41.627Z,99899.84
2023-06-17T14:19:44.081Z,99911.81
2023-06-17T14:22:46.803Z,99915.22
2023-06-17T14:26:04.300Z,99918.63
2023-06-17T14:29:09.111Z,99921.56
2023-06-17T14:32:20.450Z,99918.16
2023-06-17T14:35:26.088Z,99913.75
2023-06-17T14:38:28.466Z,99914.44
2023-06-17T14:41:33.660Z,99898.72
2023-06-17T14:44:36.440Z,99903.16
2023-06-17T14:47:42.715Z,99906.38
2023-06-17T14:50:55.030Z,99902.22
2023-06-17T14:53:57.754Z,99899.63
2023-06-17T14:57:02.655Z,99900.19
2023-06-17T15:00:06.586Z,99885.94
2023-06-17T15:03:11.437Z,99889.31
2023-06-17T15:06:19.976Z,99881.53
2023-06-17T15:09:28.293Z,99890.81
2023-06-17T15:12:31.255Z,99892.28
2023-06-17T15:15:33.665Z,99880.63
2023-06-17T15:18:39.491Z,99891.91
2023-06-17T15:21:42.709Z,99894.50
2023-06-17T15:24:51.431Z,99893.91
2023-06-17T15:27:53.768Z,99897.41
2023-06-17T15:30:57.618Z,99889.16
2023-06-17T15:34:00.876Z,99895.97
2023-06-17T15:37:03.728Z,99897.28
2023-06-17T15:40:12.954Z,99898.12
2023-06-17T15:43:17.114Z,99903.59
2023-06-17T15:46:21.606Z,99898.50
2023-06-17T15:49:24.413Z,99900.63
2023-06-17T15:52:28.644Z,99899.22
2023-06-17T15:55:34.985Z,99901.16
2023-06-17T15:58:37.521Z,99907.00
2023-06-17T16:01:40.221Z,99907.16
2023-06-17T16:04:45.131Z,99896.69
2023-06-17T16:07:47.524Z,99908.31
2023-06-17T16:10:50.323Z,99914.53
2023-06-17T16:13:52.650Z,99906.28
2023-06-17T16:16:55.631Z,99890.69
2023-06-17T16:19:59.184Z,99910.31
2023-06-17T16:23:03.397Z,99909.19
2023-06-17T16:26:05.803Z,99911.84
2023-06-17T16:29:12.360Z,99919.50
2023-06-17T16:32:14.836Z,99918.41
2023-06-17T16:35:17.489Z,99930.13
2023-06-17T16:38:22.551Z,99928.53
2023-06-17T16:41:25.208Z,99930.97
2023-06-17T16:44:27.706Z,99933.00
2023-06-17T16:47:46.148Z,99933.06
2023-06-17T16:50:51.350Z,99935.53
2023-06-17T16:53:56.474Z,99946.84
2023-06-17T16:56:58.851Z,99944.47
2023-06-17T17:00:04.116Z,99949.38
2023-06-17T17:03:08.201Z,99955.87
2023-06-17T17:06:11.015Z,99958.31
2023-06-17T17:09:13.389Z,99968.19
2023-06-17T17:12:16.142Z,99968.13
2023-06-17T17:15:22.871Z,99979.81
2023-06-17T17:18:28.742Z,99970.72
2023-06-17T17:21:31.675Z,99974.97
2023-06-17T17:24:36.815Z,99970.25
2023-06-17T17:27:39.504Z,99979.91
2023-06-17T17:30:45.051Z,99982.31
2023-06-17T17:33:47.470Z,99976.78
2023-06-17T17:36:55.296Z,99977.94
2023-06-17T17:39:57.791Z,99973.56
2023-06-17T17:43:00.544Z,99974.38
2023-06-17T17:46:05.319Z,99970.84
2023-06-17T17:49:08.109Z,99980.38
2023-06-17T17:52:10.955Z,99972.00
2023-06-17T17:55:18.654Z,99963.19
2023-06-17T17:58:21.647Z,99991.09
2023-06-17T18:01:24.281Z,99989.16
2023-06-17T18:04:27.235Z,99969.56
2023-06-17T18:07:32.561Z,99984.34
2023-06-17T18:10:36.517Z,99993.47
2023-06-17T18:13:47.684Z,99994.31
2023-06-17T18:16:50.420Z,100002.28
2023-06-17T18:19:53.480Z,100008.66
2023-06-17T18:22:56.582Z,100010.28
2023-06-17T18:25:59.006Z,100013.84
2023-06-17T18:29:04.352Z,100021.84
2023-06-17T18:32:11.955Z,100032.59
2023-06-17T18:35:16.584Z,100037.41
2023-06-17T18:38:19.135Z,100020.63
2023-06-17T18:41:26.929Z,100039.00
2023-06-17T18:44:29.461Z,100042.59
2023-06-17T18:47:34.541Z,100042.97
2023-06-17T18:50:37.396Z,100046.19
2023-06-17T18:53:40.942Z,100050.16
2023-06-17T18:56:45.457Z,100052.56
2023-06-17T18:59:50.871Z,100036.19
2023-06-17T19:02:55.836Z,100059.72
2023-06-17T19:05:58.752Z,100046.97
2023-06-17T19:09:01.265Z,100060.50
2023-06-17T19:12:07.536Z,100068.47
2023-06-17T19:15:13.162Z,100069.28
2023-06-17T19:18:18.315Z,100075.25
2023-06-17T19:21:26.510Z,100079.25
2023-06-17T19:24:44.125Z,100081.22
2023-06-17T19:27:54.269Z,100083.63
2023-06-17T19:30:58.996Z,100082.03
2023-06-17T19:34:02.301Z,100084.41
2023-06-17T19:37:05.145Z,100085.25
2023-06-17T19:40:08.491Z,100100.41
2023-06-17T19:43:11.074Z,100079.66
2023-06-17T19:46:15.730Z,100099.62
2023-06-17T19:49:19.505Z,100094.03
2023-06-17T19:52:22.439Z,100082.88
2023-06-17T19:55:25.847Z,100103.62
2023-06-17T19:58:28.556Z,100087.69
2023-06-17T20:01:31.712Z,100098.03
2023-06-17T20:04:35.278Z,100100.06
2023-06-17T20:07:37.835Z,100104.47
2023-06-17T20:10:41.722Z,100103.28
2023-06-17T20:13:44.056Z,100086.91
2023-06-17T20:16:46.633Z,100092.50
2023-06-17T20:19:49.019Z,100091.69
2023-06-17T20:22:51.968Z,100070.53
2023-06-17T20:25:54.533Z,100080.09
2023-06-17T20:28:57.188Z,100094.44
2023-06-17T20:31:59.549Z,100098.47
2023-06-17T20:35:02.286Z,100094.50
2023-06-17T20:38:04.749Z,100086.12
2023-06-17T20:41:07.382Z,100100.44
2023-06-17T20:44:09.900Z,100098.88
2023-06-17T20:47:12.848Z,100080.53
2023-06-17T20:50:15.482Z,100097.31
2023-06-17T20:53:18.309Z,100079.72
2023-06-17T20:56:23.050Z,100084.09
2023-06-17T20:59:25.848Z,100085.72
2023-06-17T21:02:28.330Z,100064.13
2023-06-17T21:05:31.226Z,100068.94
2023-06-17T21:08:33.858Z,100084.50
2023-06-17T21:11:36.542Z,100088.88
2023-06-17T21:14:38.923Z,100089.69
2023-06-17T21:17:41.881Z,100068.94
2023-06-17T21:20:44.267Z,100073.38
2023-06-17T21:23:47.111Z,100092.50
2023-06-17T21:26:49.488Z,100089.69
2023-06-17T21:29:52.175Z,100079.72
2023-06-17T21:32:54.845Z,100058.19
2023-06-17T21:35:57.546Z,100086.09
2023-06-17T21:38:59.951Z,100084.13
2023-06-17T21:42:02.586Z,100092.53
2023-06-17T21:45:05.444Z,100074.16
2023-06-17T21:48:08.168Z,100073.34
2023-06-17T21:51:10.713Z,100063.78
2023-06-17T21:54:13.408Z,100095.69
2023-06-17T21:57:16.190Z,100099.28
2023-06-17T22:00:20.195Z,100094.09
2023-06-17T22:03:24.030Z,100075.75
2023-06-17T22:06:26.570Z,100088.91
2023-06-17T22:09:29.406Z,100085.72
2023-06-17T22:12:32.060Z,100110.06
2023-06-17T22:15:34.828Z,100106.09
2023-06-17T22:18:37.163Z,100099.31
2023-06-17T22:21:39.801Z,100094.50
2023-06-17T22:24:42.662Z,100108.03
2023-06-17T22:27:46.569Z,100111.66
2023-06-17T22:30:48.861Z,100121.22
2023-06-17T22:33:51.526Z,100114.06
2023-06-17T22:36:53.880Z,100095.28
2023-06-17T22:39:56.561Z,100109.25
2023-06-17T22:42:59.200Z,100108.47
2023-06-17T22:46:03.636Z,100112.47
2023-06-17T22:49:06.056Z,100119.63
2023-06-17T22:52:08.795Z,100118.81
2023-06-17T22:55:11.315Z,100119.56
2023-06-17T22:58:13.978Z,100123.09
2023-06-17T23:01:16.443Z,100104.31
2023-06-17T23:04:19.167Z,100116.28
2023-06-17T23:07:21.497Z,100109.91
2023-06-17T23:10:24.414Z,100112.31
2023-06-17T23:13:29.889Z,100117.09
2023-06-17T23:16:32.851Z,100120.28
2023-06-17T23:19:35.441Z,100108.37
2023-06-17T23:22:38.388Z,100122.78
2023-06-17T23:25:40.983Z,100118.78
2023-06-17T23:28:43.586Z,100118.31
2023-06-17T23:31:47.145Z,100101.19
2023-06-17T23:34:53.265Z,100104.38
2023-06-17T23:37:56.448Z,100117.97
2023-06-17T23:40:59.760Z,100130.75
2023-06-17T23:44:02.330Z,100123.56
2023-06-17T23:47:05.151Z,100119.56
2023-06-17T23:50:08.516Z,100126.34
2023-06-17T23:53:12.869Z,100123.50
2023-06-17T23:56:15.216Z,100123.53
2023-06-17T23:59:17.888Z,100101.19
